Time;durP1;ratioP1;P1;durP2;ratioP2;P2;SDS_P1;SDS_P2;PMS_P1;PMS_P2;Temp;Humidity;BMP_temperature;BMP_pressure;BME280_temperature;BME280_humidity;BME280_pressure;Samples;Min_cycle;Max_cycle;Signal;HPM_P1;HPM_P2
2023/04/17 00:00:24;;;;;;;;;5.00;2.75;;;;;;;;5026248;28;62177;-83
2023/04/17 00:02:49;;;;;;;;;4.50;4.00;;;;;;;;5043373;28;62040;-83
2023/04/17 00:05:15;;;;;;;;;5.75;3.50;;;;;;;;5043566;28;62072;-83
2023/04/17 00:07:40;;;;;;;;;8.75;5.75;;;;;;;;5043897;28;62057;-83
2023/04/17 00:10:10;;;;;;;;;4.00;3.00;;;;;;;;5044540;28;62065;-84
2023/04/17 00:12:35;;;;;;;;;2.25;2.25;;;;;;;;5044018;28;61751;-83
2023/04/17 00:15:01;;;;;;;;;3.25;2.00;;;;;;;;5043612;28;61925;-83
2023/04/17 00:17:26;;;;;;;;;2.00;2.00;;;;;;;;5025763;28;62033;-83
2023/04/17 00:19:51;;;;;;;;;5.75;3.00;;;;;;;;5044609;28;61752;-84
2023/04/17 00:22:17;;;;;;;;;7.25;3.00;;;;;;;;5025440;28;65020;-84
2023/04/17 00:24:42;;;;;;;;;4.00;2.00;;;;;;;;5044030;28;62117;-83
2023/04/17 00:27:07;;;;;;;;;5.00;3.00;;;;;;;;5044244;28;62092;-84
2023/04/17 00:29:33;;;;;;;;;3.25;2.00;;;;;;;;5044072;28;61890;-83
2023/04/17 00:31:58;;;;;;;;;2.50;2.50;;;;;;;;5043233;28;62213;-83
2023/04/17 00:34:23;;;;;;;;;5.50;4.00;;;;;;;;5043836;28;61728;-83
2023/04/17 00:36:49;;;;;;;;;3.50;3.50;;;;;;;;5043595;28;61717;-83
2023/04/17 00:39:14;;;;;;;;;4.75;3.50;;;;;;;;5025449;28;62153;-84
2023/04/17 00:41:39;;;;;;;;;4.00;3.50;;;;;;;;5043524;28;62489;-83
2023/04/17 00:44:04;;;;;;;;;6.75;4.00;;;;;;;;5025776;28;61934;-83
2023/04/17 00:46:30;;;;;;;;;8.00;4.00;;;;;;;;5042907;28;62247;-84
2023/04/17 00:48:55;;;;;;;;;6.00;6.00;;;;;;;;5025453;28;62035;-83
2023/04/17 00:51:20;;;;;;;;;5.75;4.75;;;;;;;;5042825;28;62745;-83
2023/04/17 00:53:46;;;;;;;;;3.75;3.00;;;;;;;;5023332;28;62081;-82
2023/04/17 00:56:11;;;;;;;;;7.00;3.00;;;;;;;;5026293;28;61926;-82
2023/04/17 00:58:37;;;;;;;;;3.25;2.00;;;;;;;;5009692;28;61314;-85
2023/04/17 01:01:03;;;;;;;;;4.75;3.50;;;;;;;;5005071;28;63704;-84
2023/04/17 01:03:30;;;;;;;;;7.00;5.00;;;;;;;;5040582;28;62076;-84
2023/04/17 01:05:56;;;;;;;;;4.00;4.00;;;;;;;;5063996;28;61648;-83
2023/04/17 01:08:21;;;;;;;;;4.00;3.00;;;;;;;;5058787;28;61913;-83
2023/04/17 01:10:46;;;;;;;;;4.50;4.50;;;;;;;;5043061;28;62417;-83
2023/04/17 01:13:11;;;;;;;;;6.25;3.00;;;;;;;;5043208;28;62043;-83
2023/04/17 01:15:37;;;;;;;;;3.00;3.00;;;;;;;;5042307;28;61962;-83
2023/04/17 01:18:02;;;;;;;;;4.00;3.50;;;;;;;;5043483;28;61848;-83
2023/04/17 01:20:29;;;;;;;;;4.25;3.75;;;;;;;;5024809;28;64686;-84
2023/04/17 01:22:55;;;;;;;;;4.00;3.00;;;;;;;;5025186;28;61905;-83
2023/04/17 01:25:20;;;;;;;;;3.25;2.25;;;;;;;;5043029;28;61629;-85
2023/04/17 01:27:45;;;;;;;;;3.00;2.25;;;;;;;;5042900;28;61793;-84
2023/04/17 01:30:11;;;;;;;;;3.25;3.25;;;;;;;;5024166;28;63732;-84
2023/04/17 01:32:36;;;;;;;;;3.00;3.00;;;;;;;;5042767;28;61818;-84
2023/04/17 01:35:02;;;;;;;;;6.50;1.75;;;;;;;;5043350;28;61751;-84
2023/04/17 01:37:27;;;;;;;;;3.00;3.00;;;;;;;;5025043;28;62029;-84
2023/04/17 01:39:54;;;;;;;;;4.75;2.25;;;;;;;;5042455;28;61909;-84
2023/04/17 01:42:19;;;;;;;;;2.00;2.00;;;;;;;;5042821;28;61923;-84
2023/04/17 01:44:45;;;;;;;;;3.75;2.50;;;;;;;;5042184;28;61830;-84
2023/04/17 01:47:10;;;;;;;;;3.00;3.00;;;;;;;;5024933;28;62297;-84
2023/04/17 01:49:35;;;;;;;;;2.75;2.75;;;;;;;;5042175;28;61997;-84
2023/04/17 01:52:00;;;;;;;;;6.50;3.50;;;;;;;;5042525;28;61933;-84
2023/04/17 01:54:26;;;;;;;;;4.00;3.00;;;;;;;;5042813;28;61891;-84
2023/04/17 01:56:51;;;;;;;;;4.00;2.25;;;;;;;;5042167;28;61804;-84
2023/04/17 01:59:17;;;;;;;;;6.25;4.50;;;;;;;;5023764;28;64015;-84
2023/04/17 02:01:42;;;;;;;;;4.00;4.00;;;;;;;;5026235;28;61729;-84
2023/04/17 02:04:07;;;;;;;;;6.00;4.00;;;;;;;;5044475;28;61948;-84
2023/04/17 02:06:32;;;;;;;;;3.50;3.00;;;;;;;;5062992;28;62153;-84
2023/04/17 02:08:58;;;;;;;;;4.50;3.50;;;;;;;;5061931;28;62966;-84
2023/04/17 02:11:23;;;;;;;;;4.00;3.00;;;;;;;;5062215;28;62086;-84
2023/04/17 02:13:49;;;;;;;;;4.00;2.75;;;;;;;;5062442;28;62188;-84
2023/04/17 02:16:15;;;;;;;;;3.00;2.25;;;;;;;;5044207;28;61945;-84
2023/04/17 02:18:40;;;;;;;;;4.00;4.00;;;;;;;;5061843;28;61699;-84
2023/04/17 02:21:15;;;;;;;;;7.75;4.25;;;;;;;;5116847;27;61711;-73
2023/04/17 02:23:40;;;;;;;;;10.25;8.00;;;;;;;;5129812;27;61846;-74
2023/04/17 02:26:05;;;;;;;;;5.75;3.75;;;;;;;;5140192;27;62278;-74
2023/04/17 02:28:30;;;;;;;;;4.00;2.75;;;;;;;;5139893;27;62121;-74
2023/04/17 02:30:56;;;;;;;;;8.00;5.50;;;;;;;;5140551;27;61725;-74
2023/04/17 02:33:21;;;;;;;;;7.75;7.00;;;;;;;;5140678;27;61881;-74
2023/04/17 02:35:46;;;;;;;;;7.25;6.25;;;;;;;;5139623;27;61750;-74
2023/04/17 02:38:12;;;;;;;;;5.00;5.00;;;;;;;;5139607;27;61859;-73
2023/04/17 02:40:37;;;;;;;;;8.50;7.00;;;;;;;;5140137;27;62011;-74
2023/04/17 02:43:03;;;;;;;;;7.00;7.00;;;;;;;;5138778;27;62286;-74
2023/04/17 02:45:28;;;;;;;;;7.00;5.00;;;;;;;;5138639;27;61782;-74
2023/04/17 02:47:53;;;;;;;;;7.00;7.00;;;;;;;;5139902;27;61829;-74
2023/04/17 02:50:19;;;;;;;;;5.25;4.00;;;;;;;;5140309;27;61902;-74
2023/04/17 02:52:49;;;;;;;;;6.50;4.00;;;;;;;;5140290;27;62265;-74
2023/04/17 02:55:14;;;;;;;;;8.00;4.75;;;;;;;;5140078;27;62067;-74
2023/04/17 02:57:39;;;;;;;;;8.75;6.75;;;;;;;;5139618;27;62622;-74
2023/04/17 03:00:10;;;;;;;;;7.50;4.75;;;;;;;;5140274;27;61785;-74
2023/04/17 03:02:36;;;;;;;;;8.25;7.00;;;;;;;;5127552;27;61884;-74
2023/04/17 03:05:03;;;;;;;;;12.00;8.50;;;;;;;;5117907;27;61770;-74
2023/04/17 03:07:28;;;;;;;;;10.75;9.00;;;;;;;;5118588;27;62705;-74
2023/04/17 03:09:56;;;;;;;;;11.50;6.75;;;;;;;;5117644;27;61811;-74
2023/04/17 03:12:21;;;;;;;;;7.50;7.50;;;;;;;;5118166;27;61920;-74
2023/04/17 03:14:47;;;;;;;;;11.25;7.50;;;;;;;;5124284;27;61853;-74
2023/04/17 03:17:12;;;;;;;;;9.00;8.00;;;;;;;;5118338;27;61925;-73
2023/04/17 03:19:38;;;;;;;;;9.00;7.00;;;;;;;;5119094;27;62233;-73
2023/04/17 03:22:03;;;;;;;;;8.75;7.00;;;;;;;;5118633;27;62316;-73
2023/04/17 03:24:28;;;;;;;;;7.00;6.00;;;;;;;;5118056;27;62012;-73
2023/04/17 03:26:54;;;;;;;;;7.50;7.50;;;;;;;;5117362;27;64232;-73
2023/04/17 03:29:20;;;;;;;;;10.00;7.25;;;;;;;;5118690;27;62005;-73
2023/04/17 03:31:45;;;;;;;;;9.75;6.50;;;;;;;;5110319;27;62003;-74
2023/04/17 03:34:10;;;;;;;;;14.50;9.00;;;;;;;;5105076;27;62176;-77
2023/04/17 03:36:36;;;;;;;;;6.00;5.00;;;;;;;;5105763;27;61835;-73
2023/04/17 03:39:05;;;;;;;;;10.50;7.25;;;;;;;;5102436;27;61795;-77
2023/04/17 03:41:31;;;;;;;;;9.00;5.00;;;;;;;;5106761;27;62091;-75
2023/04/17 03:43:56;;;;;;;;;17.00;9.75;;;;;;;;5104903;27;61889;-75
2023/04/17 03:46:21;;;;;;;;;10.50;7.25;;;;;;;;5103704;27;62636;-77
2023/04/17 03:48:46;;;;;;;;;7.25;7.00;;;;;;;;5105218;27;61787;-74
2023/04/17 03:51:12;;;;;;;;;10.00;7.75;;;;;;;;5104758;27;61764;-75
2023/04/17 03:53:37;;;;;;;;;12.25;9.00;;;;;;;;5107308;27;62046;-76
2023/04/17 03:56:02;;;;;;;;;9.00;7.50;;;;;;;;5104595;27;61780;-75
2023/04/17 03:58:27;;;;;;;;;10.00;9.00;;;;;;;;5104508;27;62030;-75
2023/04/17 04:00:54;;;;;;;;;10.75;6.00;;;;;;;;5104851;27;61855;-72
2023/04/17 04:03:22;;;;;;;;;10.75;9.25;;;;;;;;5103853;27;61691;-72
2023/04/17 04:05:47;;;;;;;;;8.50;6.50;;;;;;;;5104260;27;61707;-72
2023/04/17 04:08:12;;;;;;;;;12.00;10.25;;;;;;;;5103964;27;61685;-72
2023/04/17 04:10:38;;;;;;;;;9.00;8.50;;;;;;;;5103053;27;61739;-71
2023/04/17 04:13:03;;;;;;;;;10.75;8.00;;;;;;;;5105052;27;62065;-72
2023/04/17 04:15:28;;;;;;;;;14.25;7.75;;;;;;;;5102994;27;61723;-72
2023/04/17 04:17:54;;;;;;;;;10.25;8.75;;;;;;;;5103161;27;61946;-71
2023/04/17 04:20:21;;;;;;;;;7.50;6.50;;;;;;;;5103451;27;61848;-71
2023/04/17 04:22:47;;;;;;;;;9.25;8.00;;;;;;;;5101823;27;61962;-71
2023/04/17 04:25:12;;;;;;;;;15.25;9.75;;;;;;;;5108995;27;61998;-72
2023/04/17 04:27:38;;;;;;;;;12.00;8.25;;;;;;;;5103443;27;62225;-72
2023/04/17 04:30:04;;;;;;;;;11.25;8.75;;;;;;;;5100812;27;61985;-72
2023/04/17 04:32:29;;;;;;;;;9.75;9.50;;;;;;;;5102213;27;61894;-71
2023/04/17 04:34:57;;;;;;;;;13.75;11.50;;;;;;;;5101655;27;61944;-72
2023/04/17 04:37:28;;;;;;;;;16.25;12.00;;;;;;;;5099505;27;61911;-71
2023/04/17 04:40:00;;;;;;;;;11.00;9.00;;;;;;;;5103142;27;61845;-72
2023/04/17 04:42:26;;;;;;;;;17.25;12.25;;;;;;;;5097902;27;62025;-72
2023/04/17 04:44:51;;;;;;;;;14.00;13.00;;;;;;;;5101043;27;62194;-72
2023/04/17 04:47:18;;;;;;;;;16.00;12.00;;;;;;;;5097695;27;61988;-72
2023/04/17 04:49:44;;;;;;;;;15.25;11.75;;;;;;;;5103121;27;61833;-72
2023/04/17 04:52:09;;;;;;;;;19.00;14.50;;;;;;;;5109872;27;61872;-72
2023/04/17 04:54:34;;;;;;;;;11.25;10.00;;;;;;;;5105496;27;63925;-72
2023/04/17 04:57:00;;;;;;;;;9.75;7.50;;;;;;;;5103781;27;61874;-71
2023/04/17 04:59:25;;;;;;;;;18.00;15.25;;;;;;;;5110265;27;61795;-72
2023/04/17 05:01:51;;;;;;;;;15.25;12.00;;;;;;;;5119315;27;61757;-74
2023/04/17 05:04:16;;;;;;;;;15.25;12.75;;;;;;;;5101957;27;62955;-73
2023/04/17 05:06:41;;;;;;;;;17.00;13.75;;;;;;;;5101942;27;61751;-73
2023/04/17 05:09:06;;;;;;;;;15.50;12.75;;;;;;;;5111078;27;62044;-73
2023/04/17 05:11:32;;;;;;;;;18.00;14.00;;;;;;;;5124772;27;62329;-73
2023/04/17 05:13:58;;;;;;;;;17.00;15.50;;;;;;;;5118727;27;61862;-73
2023/04/17 05:16:23;;;;;;;;;21.25;18.50;;;;;;;;5110771;27;61919;-73
2023/04/17 05:18:48;;;;;;;;;23.25;17.50;;;;;;;;5103097;27;61833;-74
2023/04/17 05:21:13;;;;;;;;;24.25;20.25;;;;;;;;5107189;27;61747;-73
2023/04/17 05:23:39;;;;;;;;;61.75;49.75;;;;;;;;5102010;27;62119;-75
2023/04/17 05:26:04;;;;;;;;;36.25;35.00;;;;;;;;5101250;27;61810;-75
2023/04/17 05:28:30;;;;;;;;;53.25;42.50;;;;;;;;5102625;27;61752;-75
2023/04/17 05:30:56;;;;;;;;;41.50;30.50;;;;;;;;5101975;27;61805;-75
2023/04/17 05:33:21;;;;;;;;;28.00;22.75;;;;;;;;5103785;27;62037;-75
2023/04/17 05:35:46;;;;;;;;;47.00;37.50;;;;;;;;5103622;27;62229;-75
2023/04/17 05:38:12;;;;;;;;;41.50;26.00;;;;;;;;5106790;27;62672;-74
2023/04/17 05:40:37;;;;;;;;;24.50;21.00;;;;;;;;5102145;27;62024;-74
2023/04/17 05:43:09;;;;;;;;;38.50;28.75;;;;;;;;5103909;27;63295;-74
2023/04/17 05:45:35;;;;;;;;;27.50;20.25;;;;;;;;5100653;27;61868;-74
2023/04/17 05:48:00;;;;;;;;;64.25;47.25;;;;;;;;5101708;27;61661;-74
2023/04/17 05:50:41;;;;;;;;;29.75;25.00;;;;;;;;5100280;27;62076;-74
2023/04/17 05:53:07;;;;;;;;;25.75;23.50;;;;;;;;5118579;27;64439;-74
2023/04/17 05:55:32;;;;;;;;;24.00;19.00;;;;;;;;5114966;27;61949;-74
2023/04/17 05:57:57;;;;;;;;;31.25;25.50;;;;;;;;5102524;27;61686;-74
2023/04/17 06:00:23;;;;;;;;;40.00;29.25;;;;;;;;5101039;27;62184;-74
2023/04/17 06:02:49;;;;;;;;;33.25;27.50;;;;;;;;5099212;27;63961;-72
2023/04/17 06:05:15;;;;;;;;;32.75;24.25;;;;;;;;5100970;27;61682;-72
2023/04/17 06:07:40;;;;;;;;;25.50;20.25;;;;;;;;5117584;27;61584;-73
2023/04/17 06:10:07;;;;;;;;;22.50;17.50;;;;;;;;5122873;27;61904;-73
2023/04/17 06:12:33;;;;;;;;;16.50;7.25;;;;;;;;5100185;27;63491;-73
2023/04/17 06:14:58;;;;;;;;;25.00;22.00;;;;;;;;5101325;27;61869;-73
2023/04/17 06:17:23;;;;;;;;;19.50;19.50;;;;;;;;5102509;27;61862;-73
2023/04/17 06:19:48;;;;;;;;;27.00;19.50;;;;;;;;5121837;27;62905;-73
2023/04/17 06:22:14;;;;;;;;;26.00;19.75;;;;;;;;5103473;27;62418;-74
2023/04/17 06:24:39;;;;;;;;;24.50;24.50;;;;;;;;5101449;27;61889;-73
2023/04/17 06:27:05;;;;;;;;;32.25;26.75;;;;;;;;5101641;27;62613;-74
2023/04/17 06:29:31;;;;;;;;;22.25;17.75;;;;;;;;5101856;27;61838;-73
2023/04/17 06:31:56;;;;;;;;;21.25;17.50;;;;;;;;5109400;27;61863;-73
2023/04/17 06:34:21;;;;;;;;;28.75;18.75;;;;;;;;5103602;27;61977;-74
2023/04/17 06:36:47;;;;;;;;;16.25;14.75;;;;;;;;5104424;27;62121;-73
2023/04/17 06:39:12;;;;;;;;;30.25;18.25;;;;;;;;5099761;27;62138;-73
2023/04/17 06:41:38;;;;;;;;;24.25;19.00;;;;;;;;5101035;27;61947;-73
2023/04/17 06:44:03;;;;;;;;;27.00;19.25;;;;;;;;5106576;27;62427;-73
2023/04/17 06:46:28;;;;;;;;;23.50;21.75;;;;;;;;5097528;27;62095;-73
2023/04/17 06:48:56;;;;;;;;;25.50;22.50;;;;;;;;5113266;27;61821;-73
2023/04/17 06:51:23;;;;;;;;;28.00;20.50;;;;;;;;5105478;27;62120;-73
2023/04/17 06:53:49;;;;;;;;;35.75;26.75;;;;;;;;5100747;27;61862;-73
2023/04/17 06:56:14;;;;;;;;;28.50;20.25;;;;;;;;5100652;27;61916;-76
2023/04/17 06:58:43;;;;;;;;;34.75;24.00;;;;;;;;5102047;27;61951;-73
2023/04/17 07:01:09;;;;;;;;;17.25;16.00;;;;;;;;5100732;27;61771;-72
2023/04/17 07:03:34;;;;;;;;;23.25;20.75;;;;;;;;5100222;27;62175;-72
2023/04/17 07:05:59;;;;;;;;;29.00;21.00;;;;;;;;5101149;27;61892;-73
2023/04/17 07:08:25;;;;;;;;;23.00;21.25;;;;;;;;5103040;27;61699;-73
2023/04/17 07:10:50;;;;;;;;;21.00;19.25;;;;;;;;5104045;27;62791;-72
2023/04/17 07:13:15;;;;;;;;;25.00;20.75;;;;;;;;5105314;27;61708;-72
2023/04/17 07:15:40;;;;;;;;;32.25;21.50;;;;;;;;5104621;27;61716;-72
2023/04/17 07:18:06;;;;;;;;;13.00;13.00;;;;;;;;5102649;27;62391;-72
2023/04/17 07:20:31;;;;;;;;;30.25;23.75;;;;;;;;5103940;27;62635;-72
2023/04/17 07:22:56;;;;;;;;;22.25;18.75;;;;;;;;5104000;27;61942;-72
2023/04/17 07:25:21;;;;;;;;;27.00;25.25;;;;;;;;5104336;27;61852;-72
2023/04/17 07:27:47;;;;;;;;;25.25;19.00;;;;;;;;5104640;27;61713;-72
2023/04/17 07:30:12;;;;;;;;;28.25;23.00;;;;;;;;5101924;27;62017;-73
2023/04/17 07:32:38;;;;;;;;;35.25;28.00;;;;;;;;5104067;27;61802;-72
2023/04/17 07:35:03;;;;;;;;;28.75;23.75;;;;;;;;5104308;27;61866;-73
2023/04/17 07:37:28;;;;;;;;;35.50;26.75;;;;;;;;5103781;27;62037;-72
2023/04/17 07:39:54;;;;;;;;;25.75;24.00;;;;;;;;5102520;27;62808;-73
2023/04/17 07:42:19;;;;;;;;;31.75;26.25;;;;;;;;5102459;27;61822;-73
2023/04/17 07:44:44;;;;;;;;;20.50;20.50;;;;;;;;5104128;27;61794;-73
2023/04/17 07:47:10;;;;;;;;;28.25;24.50;;;;;;;;5104734;27;62032;-73
2023/04/17 07:49:35;;;;;;;;;27.00;24.25;;;;;;;;5103565;27;62757;-73
2023/04/17 07:52:00;;;;;;;;;27.00;20.50;;;;;;;;5119302;27;61834;-74
2023/04/17 07:54:26;;;;;;;;;26.25;23.00;;;;;;;;5105025;27;61896;-73
2023/04/17 07:56:51;;;;;;;;;25.50;19.75;;;;;;;;5103300;27;61848;-73
2023/04/17 07:59:16;;;;;;;;;29.25;23.75;;;;;;;;5102236;27;63891;-74
2023/04/17 08:01:42;;;;;;;;;25.50;24.00;;;;;;;;5109496;27;62136;-73
2023/04/17 08:04:07;;;;;;;;;26.25;23.00;;;;;;;;5103005;27;62066;-74
2023/04/17 08:06:32;;;;;;;;;26.00;21.00;;;;;;;;5104633;27;61794;-74
2023/04/17 08:08:58;;;;;;;;;29.25;24.50;;;;;;;;5102134;27;63518;-73
2023/04/17 08:11:24;;;;;;;;;23.75;21.50;;;;;;;;5104293;27;61858;-73
2023/04/17 08:13:49;;;;;;;;;26.50;18.75;;;;;;;;5103658;27;61813;-73
2023/04/17 08:16:14;;;;;;;;;23.00;16.50;;;;;;;;5105609;27;61938;-74
2023/04/17 08:18:40;;;;;;;;;21.75;19.00;;;;;;;;5122764;27;63359;-73
2023/04/17 08:21:07;;;;;;;;;26.00;20.75;;;;;;;;5125182;27;62190;-73
2023/04/17 08:23:32;;;;;;;;;29.75;23.50;;;;;;;;5124131;27;62011;-74
2023/04/17 08:25:57;;;;;;;;;38.75;27.50;;;;;;;;5125115;27;61777;-73
2023/04/17 08:28:23;;;;;;;;;31.25;22.25;;;;;;;;5122678;27;64372;-73
2023/04/17 08:30:48;;;;;;;;;33.75;24.00;;;;;;;;5124439;27;61971;-73
2023/04/17 08:33:15;;;;;;;;;38.50;24.25;;;;;;;;5104652;27;61972;-73
2023/04/17 08:35:41;;;;;;;;;37.50;24.75;;;;;;;;5102611;27;61791;-73
2023/04/17 08:38:07;;;;;;;;;37.00;27.00;;;;;;;;5103405;27;62612;-73
2023/04/17 08:40:32;;;;;;;;;24.75;22.75;;;;;;;;5102794;27;61912;-73
2023/04/17 08:42:59;;;;;;;;;28.75;23.50;;;;;;;;5107689;27;61707;-73
2023/04/17 08:45:24;;;;;;;;;28.50;19.75;;;;;;;;5090889;27;61739;-73
2023/04/17 08:47:50;;;;;;;;;41.75;21.75;;;;;;;;5094139;27;62561;-73
2023/04/17 08:50:16;;;;;;;;;32.25;25.25;;;;;;;;5103836;27;61783;-74
2023/04/17 08:52:45;;;;;;;;;34.00;26.75;;;;;;;;5103590;27;61701;-73
2023/04/17 08:55:12;;;;;;;;;40.50;28.25;;;;;;;;5104075;27;61844;-73
2023/04/17 08:57:56;;;;;;;;;43.50;29.00;;;;;;;;5102551;27;61844;-73
2023/04/17 09:00:26;;;;;;;;;37.75;28.50;;;;;;;;5102623;27;61781;-73
2023/04/17 09:02:53;;;;;;;;;38.75;29.75;;;;;;;;5102567;27;61876;-73
2023/04/17 09:05:20;;;;;;;;;38.25;30.75;;;;;;;;5102689;27;62056;-73
2023/04/17 09:07:45;;;;;;;;;38.00;29.50;;;;;;;;5100899;27;63539;-73
2023/04/17 09:10:10;;;;;;;;;40.25;33.00;;;;;;;;5103692;27;62114;-73
2023/04/17 09:12:40;;;;;;;;;47.50;36.75;;;;;;;;5103030;27;61679;-73
2023/04/17 09:15:14;;;;;;;;;35.50;29.25;;;;;;;;5102194;27;61788;-73
2023/04/17 09:17:39;;;;;;;;;39.75;32.25;;;;;;;;5102899;27;61744;-73
2023/04/17 09:20:10;;;;;;;;;35.50;31.00;;;;;;;;5103301;27;62120;-73
2023/04/17 09:22:36;;;;;;;;;40.25;28.25;;;;;;;;5101963;27;61918;-74
2023/04/17 09:25:01;;;;;;;;;44.25;33.00;;;;;;;;5103511;27;62145;-74
2023/04/17 09:27:27;;;;;;;;;38.25;28.25;;;;;;;;5102052;27;62003;-73
2023/04/17 09:30:03;;;;;;;;;47.25;30.25;;;;;;;;5102269;27;61749;-74
2023/04/17 09:32:30;;;;;;;;;38.50;30.50;;;;;;;;5103607;27;61923;-73
2023/04/17 09:34:57;;;;;;;;;24.50;17.25;;;;;;;;5103312;27;61925;-73
2023/04/17 09:37:22;;;;;;;;;46.00;35.50;;;;;;;;5102264;27;62098;-74
2023/04/17 09:39:58;;;;;;;;;49.75;31.75;;;;;;;;5101710;27;61925;-74
2023/04/17 09:42:23;;;;;;;;;48.00;27.00;;;;;;;;5101412;27;61961;-73
2023/04/17 09:44:49;;;;;;;;;39.00;29.25;;;;;;;;5100974;27;62397;-74
2023/04/17 09:47:16;;;;;;;;;38.75;29.00;;;;;;;;5101334;27;63570;-74
2023/04/17 09:49:43;;;;;;;;;37.25;32.75;;;;;;;;5103203;27;61856;-74
2023/04/17 09:52:09;;;;;;;;;40.75;34.25;;;;;;;;5102505;27;61852;-74
2023/04/17 09:54:38;;;;;;;;;41.50;29.25;;;;;;;;5101333;27;61788;-74
2023/04/17 09:57:07;;;;;;;;;36.25;26.75;;;;;;;;5100434;27;63669;-74
2023/04/17 09:59:32;;;;;;;;;41.75;29.00;;;;;;;;5102758;27;61878;-74
2023/04/17 10:02:00;;;;;;;;;43.00;36.25;;;;;;;;5101059;27;62089;-74
2023/04/17 10:04:25;;;;;;;;;46.25;32.25;;;;;;;;5102821;27;61688;-73
2023/04/17 10:06:51;;;;;;;;;37.00;32.25;;;;;;;;5101963;27;62448;-74
2023/04/17 10:09:16;;;;;;;;;43.00;32.00;;;;;;;;5100590;27;61747;-74
2023/04/17 10:11:43;;;;;;;;;42.75;29.25;;;;;;;;5101031;27;61623;-74
2023/04/17 10:14:11;;;;;;;;;45.00;31.75;;;;;;;;5102746;27;61910;-75
2023/04/17 10:16:38;;;;;;;;;45.50;27.75;;;;;;;;5099772;27;62150;-74
2023/04/17 10:19:22;;;;;;;;;40.75;32.00;;;;;;;;5100760;27;61782;-74
2023/04/17 10:22:08;;;;;;;;;34.75;27.25;;;;;;;;5101322;27;61868;-73
2023/04/17 10:24:34;;;;;;;;;39.00;27.25;;;;;;;;5099977;27;62188;-73
2023/04/17 10:27:00;;;;;;;;;49.50;33.25;;;;;;;;5101698;27;62082;-73
2023/04/17 10:29:44;;;;;;;;;42.25;31.25;;;;;;;;5108330;27;62154;-73
2023/04/17 10:32:09;;;;;;;;;40.50;28.50;;;;;;;;5119391;27;61659;-74
2023/04/17 10:34:35;;;;;;;;;27.50;20.50;;;;;;;;5102773;27;62486;-73
2023/04/17 10:37:02;;;;;;;;;35.00;28.00;;;;;;;;5099710;27;63733;-73
2023/04/17 10:39:46;;;;;;;;;37.25;31.50;;;;;;;;5103948;27;62054;-73
2023/04/17 10:42:16;;;;;;;;;29.50;26.50;;;;;;;;5116380;27;61779;-74
2023/04/17 10:44:43;;;;;;;;;48.50;29.75;;;;;;;;5104055;27;61989;-73
2023/04/17 10:47:09;;;;;;;;;46.00;32.25;;;;;;;;5105384;27;62111;-73
2023/04/17 10:49:46;;;;;;;;;39.75;29.00;;;;;;;;5104322;27;61884;-75
2023/04/17 10:52:30;;;;;;;;;42.25;29.00;;;;;;;;5105708;27;61682;-72
2023/04/17 10:55:02;;;;;;;;;44.25;30.75;;;;;;;;5105716;27;62069;-73
2023/04/17 10:57:51;;;;;;;;;33.50;26.50;;;;;;;;5103945;27;63402;-73
2023/04/17 11:00:17;;;;;;;;;35.75;27.75;;;;;;;;5102221;27;61724;-73
2023/04/17 11:02:49;;;;;;;;;46.00;33.25;;;;;;;;5104709;27;61847;-73
2023/04/17 11:05:15;;;;;;;;;37.25;27.50;;;;;;;;5106168;27;61889;-73
2023/04/17 11:07:42;;;;;;;;;24.00;21.00;;;;;;;;5113750;27;61854;-74
2023/04/17 11:10:08;;;;;;;;;38.00;27.00;;;;;;;;5103448;27;62206;-73
2023/04/17 11:12:33;;;;;;;;;39.75;31.75;;;;;;;;5113501;27;61838;-73
2023/04/17 11:15:02;;;;;;;;;47.00;33.75;;;;;;;;5105101;27;61839;-73
2023/04/17 11:17:27;;;;;;;;;50.50;28.75;;;;;;;;5104569;27;61816;-74
2023/04/17 11:19:53;;;;;;;;;43.00;32.00;;;;;;;;5103759;27;61995;-74
2023/04/17 11:22:19;;;;;;;;;28.50;23.25;;;;;;;;5104400;27;61806;-75
2023/04/17 11:24:45;;;;;;;;;38.50;32.25;;;;;;;;5104884;27;62142;-74
2023/04/17 11:27:10;;;;;;;;;30.00;27.25;;;;;;;;5104418;27;61729;-74
2023/04/17 11:29:35;;;;;;;;;40.50;29.75;;;;;;;;5112814;27;61918;-74
2023/04/17 11:32:00;;;;;;;;;34.25;30.75;;;;;;;;5126107;27;62026;-74
2023/04/17 11:34:26;;;;;;;;;46.00;31.50;;;;;;;;5126072;27;61827;-74
2023/04/17 11:36:52;;;;;;;;;39.50;32.50;;;;;;;;5124752;27;61882;-75
2023/04/17 11:39:18;;;;;;;;;32.00;29.75;;;;;;;;5124928;27;62062;-74
2023/04/17 11:41:44;;;;;;;;;32.75;24.50;;;;;;;;5125906;27;61944;-74
2023/04/17 11:44:11;;;;;;;;;29.50;25.25;;;;;;;;5124640;27;61723;-74
2023/04/17 11:46:36;;;;;;;;;29.00;25.50;;;;;;;;5122927;27;63996;-74
2023/04/17 11:49:04;;;;;;;;;30.50;26.50;;;;;;;;5125831;27;62141;-74
2023/04/17 11:51:30;;;;;;;;;32.50;28.75;;;;;;;;5124429;27;61793;-75
2023/04/17 11:53:55;;;;;;;;;30.25;24.50;;;;;;;;5125235;27;61932;-74
2023/04/17 11:56:26;;;;;;;;;36.75;26.50;;;;;;;;5124759;27;61867;-74
2023/04/17 11:58:52;;;;;;;;;37.50;28.50;;;;;;;;5125552;27;61756;-75
2023/04/17 12:01:18;;;;;;;;;36.00;27.75;;;;;;;;5125165;27;61861;-75
2023/04/17 12:03:43;;;;;;;;;34.75;26.25;;;;;;;;5104228;27;62255;-74
2023/04/17 12:06:10;;;;;;;;;40.75;28.25;;;;;;;;5102410;27;63611;-75
2023/04/17 12:08:45;;;;;;;;;24.25;23.50;;;;;;;;5103019;27;62018;-75
2023/04/17 12:11:24;;;;;;;;;24.00;21.25;;;;;;;;5103490;27;61847;-74
2023/04/17 12:13:53;;;;;;;;;31.25;23.00;;;;;;;;5104966;27;61890;-74
2023/04/17 12:16:18;;;;;;;;;43.75;27.25;;;;;;;;5102897;27;61889;-74
2023/04/17 12:18:45;;;;;;;;;32.50;23.50;;;;;;;;5104550;27;61977;-75
2023/04/17 12:21:10;;;;;;;;;29.25;27.25;;;;;;;;5103826;27;61988;-74
2023/04/17 12:23:35;;;;;;;;;31.00;23.00;;;;;;;;5104236;27;61687;-74
2023/04/17 12:26:00;;;;;;;;;30.25;22.50;;;;;;;;5103714;27;61851;-74
2023/04/17 12:28:26;;;;;;;;;36.00;28.00;;;;;;;;5104309;27;62003;-74
2023/04/17 12:30:51;;;;;;;;;38.50;26.50;;;;;;;;5104470;27;62175;-74
2023/04/17 12:33:16;;;;;;;;;30.50;26.75;;;;;;;;5103185;27;61821;-74
2023/04/17 12:35:41;;;;;;;;;26.25;20.75;;;;;;;;5101468;27;63744;-74
2023/04/17 12:38:07;;;;;;;;;25.25;23.00;;;;;;;;5102837;27;61853;-74
2023/04/17 12:40:32;;;;;;;;;25.75;23.00;;;;;;;;5104260;27;61897;-74
2023/04/17 12:42:57;;;;;;;;;32.50;29.25;;;;;;;;5102734;27;62080;-74
2023/04/17 12:45:22;;;;;;;;;35.75;26.75;;;;;;;;5101535;27;63243;-74
2023/04/17 12:47:48;;;;;;;;;31.75;23.75;;;;;;;;5102583;27;62252;-74
2023/04/17 12:50:13;;;;;;;;;31.25;26.25;;;;;;;;5103531;27;61863;-75
2023/04/17 12:52:40;;;;;;;;;25.75;21.25;;;;;;;;5103447;27;61798;-75
2023/04/17 12:55:06;;;;;;;;;21.25;20.00;;;;;;;;5103330;27;62001;-74
2023/04/17 12:57:32;;;;;;;;;35.25;23.50;;;;;;;;5102433;27;61998;-74
2023/04/17 12:59:57;;;;;;;;;33.00;25.25;;;;;;;;5102424;27;62073;-74
2023/04/17 13:02:22;;;;;;;;;34.75;25.25;;;;;;;;5101779;27;61804;-74
2023/04/17 13:04:50;;;;;;;;;27.00;22.00;;;;;;;;5101321;27;61989;-74
2023/04/17 13:07:16;;;;;;;;;38.25;24.00;;;;;;;;5103902;27;61748;-74
2023/04/17 13:09:42;;;;;;;;;31.00;27.75;;;;;;;;5101698;27;61645;-74
2023/04/17 13:12:07;;;;;;;;;21.25;19.50;;;;;;;;5102701;27;62126;-74
2023/04/17 13:14:32;;;;;;;;;31.25;24.75;;;;;;;;5101670;27;65104;-74
2023/04/17 13:16:58;;;;;;;;;30.00;29.50;;;;;;;;5102028;27;61798;-74
2023/04/17 13:19:23;;;;;;;;;31.25;23.50;;;;;;;;5102997;27;61789;-74
2023/04/17 13:21:50;;;;;;;;;34.50;24.25;;;;;;;;5103574;27;61775;-74
2023/04/17 13:24:15;;;;;;;;;34.25;27.25;;;;;;;;5101126;27;64795;-74
2023/04/17 13:26:41;;;;;;;;;37.25;30.25;;;;;;;;5102922;27;61798;-74
2023/04/17 13:29:06;;;;;;;;;36.00;27.75;;;;;;;;5103648;27;61931;-74
2023/04/17 13:31:32;;;;;;;;;36.75;26.00;;;;;;;;5102084;27;62299;-74
2023/04/17 13:33:57;;;;;;;;;38.00;30.50;;;;;;;;5102032;27;62401;-74
2023/04/17 13:36:22;;;;;;;;;41.00;28.75;;;;;;;;5101521;27;61827;-74
2023/04/17 13:38:47;;;;;;;;;44.50;33.50;;;;;;;;5102609;27;61804;-74
2023/04/17 13:41:13;;;;;;;;;36.50;30.25;;;;;;;;5103642;27;61995;-75
2023/04/17 13:43:38;;;;;;;;;34.50;28.25;;;;;;;;5102926;27;62635;-74
2023/04/17 13:46:03;;;;;;;;;42.00;32.25;;;;;;;;5100181;27;61741;-75
2023/04/17 13:48:29;;;;;;;;;38.00;28.75;;;;;;;;5101403;27;61961;-74
2023/04/17 13:50:54;;;;;;;;;49.50;35.25;;;;;;;;5103049;27;61874;-74
2023/04/17 13:53:19;;;;;;;;;41.25;33.25;;;;;;;;5102145;27;62924;-74
2023/04/17 13:55:44;;;;;;;;;47.75;31.75;;;;;;;;5102649;27;61930;-74
2023/04/17 13:58:10;;;;;;;;;36.00;31.25;;;;;;;;5102802;27;61998;-74
2023/04/17 14:00:35;;;;;;;;;41.75;27.75;;;;;;;;5101616;27;62038;-74
2023/04/17 14:03:00;;;;;;;;;36.50;32.50;;;;;;;;5100566;27;62135;-74
2023/04/17 14:05:25;;;;;;;;;38.25;31.50;;;;;;;;5102586;27;61902;-74
2023/04/17 14:07:51;;;;;;;;;37.75;26.00;;;;;;;;5100808;27;61851;-74
2023/04/17 14:10:16;;;;;;;;;45.00;31.75;;;;;;;;5103016;27;61967;-73
2023/04/17 14:12:41;;;;;;;;;37.25;29.25;;;;;;;;5102335;27;62824;-74
2023/04/17 14:15:07;;;;;;;;;38.75;30.00;;;;;;;;5101520;27;61824;-73
2023/04/17 14:17:36;;;;;;;;;53.50;40.00;;;;;;;;5102301;27;61715;-73